Time;durP1;ratioP1;P1;durP2;ratioP2;P2;SDS_P1;SDS_P2;PMS_P1;PMS_P2;Temp;Humidity;BMP_temperature;BMP_pressure;BME280_temperature;BME280_humidity;BME280_pressure;Samples;Min_cycle;Max_cycle;Signal;HPM_P1;HPM_P2
2023/06/04 00:05:50;;;;;;;1.10;0.52;;;;;;;12.15;44.65;101750.97;15678617;28;20366;-50
2023/06/04 00:13:24;;;;;;;2.50;0.60;;;;;;;12.08;44.49;101744.72;15675942;28;20426;-49
2023/06/04 00:20:57;;;;;;;0.50;0.40;;;;;;;11.99;44.58;101741.31;15689701;28;20051;-49
2023/06/04 00:28:31;;;;;;;0.40;0.30;;;;;;;11.82;44.96;101734.53;15678929;28;20452;-52
2023/06/04 00:36:04;;;;;;;0.50;0.43;;;;;;;11.69;45.89;101721.78;15673658;28;20056;-49
2023/06/04 00:43:38;;;;;;;0.87;0.50;;;;;;;11.63;45.28;101723.41;15677234;28;20095;-47
2023/06/04 00:51:12;;;;;;;0.20;0.20;;;;;;;11.40;47.24;101728.13;15676097;28;20124;-48
2023/06/04 00:58:47;;;;;;;2.63;0.73;;;;;;;11.20;47.53;101718.00;15674139;28;20428;-48
2023/06/04 01:06:26;;;;;;;2.63;1.30;;;;;;;10.99;48.27;101723.34;15673901;28;20667;-49
2023/06/04 01:14:01;;;;;;;0.40;0.32;;;;;;;10.79;49.91;101717.72;15656544;28;20084;-49
2023/06/04 01:21:38;;;;;;;0.85;0.40;;;;;;;10.59;50.88;101716.66;15683520;28;20051;-48
2023/06/04 01:29:15;;;;;;;0.45;0.45;;;;;;;10.50;50.86;101715.09;15679637;28;20049;-47
2023/06/04 01:37:03;;;;;;;2.83;0.85;;;;;;;10.51;50.16;101714.06;15663888;28;20049;-47
2023/06/04 01:44:37;;;;;;;1.60;0.70;;;;;;;10.16;51.31;101717.25;15667582;28;20107;-50
2023/06/04 01:52:11;;;;;;;1.50;0.70;;;;;;;10.04;52.00;101716.03;15676777;28;20086;-49
2023/06/04 01:59:46;;;;;;;0.77;0.63;;;;;;;9.92;53.09;101714.81;15671841;28;20468;-49
2023/06/04 02:07:20;;;;;;;0.77;0.50;;;;;;;9.92;52.63;101715.63;15671662;28;20405;-51
2023/06/04 02:14:54;;;;;;;1.02;0.98;;;;;;;9.56;53.96;101683.31;15672427;28;20080;-49
2023/06/04 02:22:27;;;;;;;0.30;0.30;;;;;;;9.41;54.06;101701.16;15691950;28;20455;-49
2023/06/04 02:30:02;;;;;;;0.57;0.40;;;;;;;9.45;54.34;101707.81;15672973;28;20091;-50
2023/06/04 02:37:34;;;;;;;2.08;0.60;;;;;;;9.31;54.70;101703.25;15687838;28;20061;-47
2023/06/04 02:45:10;;;;;;;0.83;0.50;;;;;;;9.12;55.81;101707.22;15669603;28;20099;-46
2023/06/04 02:52:44;;;;;;;0.17;0.17;;;;;;;9.11;55.73;101706.38;15661162;28;20049;-51
2023/06/04 03:00:18;;;;;;;0.65;0.65;;;;;;;8.94;56.30;101712.84;15678895;28;20037;-49
2023/06/04 03:07:51;;;;;;;1.20;0.40;;;;;;;8.83;56.66;101714.06;15663903;28;20064;-48
2023/06/04 03:15:26;;;;;;;0.85;0.50;;;;;;;8.97;55.63;101704.47;15680137;28;20045;-48
2023/06/04 03:22:59;;;;;;;2.83;0.63;;;;;;;8.77;56.98;101709.44;15678740;28;20051;-48
2023/06/04 03:30:33;;;;;;;0.47;0.35;;;;;;;8.96;57.08;101715.34;15690732;28;20053;-47
2023/06/04 03:38:10;;;;;;;0.43;0.32;;;;;;;9.01;57.58;101716.50;15683555;28;20037;-50
2023/06/04 03:45:44;;;;;;;2.20;0.57;;;;;;;8.95;57.95;101714.50;15686678;28;20044;-47
2023/06/04 03:53:18;;;;;;;0.52;0.47;;;;;;;9.39;56.71;101724.63;15663632;28;20053;-49
2023/06/04 04:00:52;;;;;;;0.07;0.07;;;;;;;9.55;57.02;101721.81;15681608;28;20041;-50
2023/06/04 04:08:26;;;;;;;0.75;0.73;;;;;;;9.76;57.68;101721.16;15660103;28;20334;-47
2023/06/04 04:16:01;;;;;;;0.47;0.30;;;;;;;10.03;56.92;101727.78;15679146;28;20209;-48
2023/06/04 04:23:34;;;;;;;1.50;0.80;;;;;;;10.42;56.66;101732.09;15674312;28;20144;-49
2023/06/04 04:31:08;;;;;;;1.30;0.57;;;;;;;10.81;55.99;101729.09;15688306;28;20048;-48
2023/06/04 04:38:42;;;;;;;2.85;0.98;;;;;;;10.96;53.94;101702.25;15662003;28;20410;-49
2023/06/04 04:46:17;;;;;;;3.60;0.98;;;;;;;11.58;52.26;101733.91;15684522;28;20095;-49
2023/06/04 04:53:50;;;;;;;0.30;0.30;;;;;;;11.96;52.42;101739.03;15677195;28;20033;-48
2023/06/04 05:01:26;;;;;;;0.25;0.20;;;;;;;12.34;50.19;101741.34;15696329;22;20358;-77
2023/06/04 05:08:59;;;;;;;0.98;0.52;;;;;;;12.69;49.08;101747.59;15679066;28;20041;-77
2023/06/04 05:16:35;;;;;;;3.83;0.40;;;;;;;13.34;45.72;101743.50;15662961;28;20045;-77
2023/06/04 05:24:09;;;;;;;0.93;0.43;;;;;;;13.66;44.48;101744.59;15686634;28;20650;-77
2023/06/04 05:31:49;;;;;;;3.72;0.35;;;;;;;14.73;43.89;101748.00;15684242;28;20054;-78
2023/06/04 05:39:26;;;;;;;0.05;0.05;;;;;;;14.88;42.42;101762.13;15697316;28;20045;-77
2023/06/04 05:47:19;;;;;;;0.70;0.25;;;;;;;15.18;40.79;101748.88;15711204;28;20100;-78
2023/06/04 05:54:55;;;;;;;0.15;0.15;;;;;;;16.03;41.78;101762.06;15713769;28;20546;-78
2023/06/04 06:02:30;;;;;;;0.20;0.20;;;;;;;16.81;38.15;101734.41;15691731;28;20091;-78
2023/06/04 06:10:03;;;;;;;0.65;0.63;;;;;;;17.52;36.93;101754.53;15723881;28;20088;-78
2023/06/04 06:17:48;;;;;;;0.57;0.30;;;;;;;18.58;35.52;101772.59;15691753;28;20075;-79
2023/06/04 06:25:25;;;;;;;0.52;0.25;;;;;;;18.51;36.81;101774.63;15730236;28;20044;-77
2023/06/04 06:33:09;;;;;;;0.20;0.20;;;;;;;18.71;37.81;101774.28;15727523;28;20044;-78
2023/06/04 06:40:42;;;;;;;0.30;0.30;;;;;;;19.29;33.46;101764.28;15730147;28;20071;-78
2023/06/04 06:48:16;;;;;;;0.08;0.00;;;;;;;19.85;30.77;101782.47;15722468;28;20120;-78
2023/06/04 06:55:49;;;;;;;0.57;0.40;;;;;;;19.86;31.46;101788.75;15722498;28;20188;-79
2023/06/04 07:03:23;;;;;;;;;;;;;;;21.09;30.11;101786.75;15693883;28;20100;-79
2023/06/04 07:10:56;;;;;;;0.03;0.03;;;;;;;21.75;28.11;101794.03;15687974;28;19952;-78
2023/06/04 07:18:30;;;;;;;;;;;;;;;22.14;27.60;101786.44;15706092;28;20041;-79
2023/06/04 07:26:05;;;;;;;1.85;0.25;;;;;;;23.39;23.28;101791.19;15688999;28;19964;-79
2023/06/04 07:33:43;;;;;;;0.10;0.10;;;;;;;23.09;25.00;101772.78;15722669;28;20036;-79
2023/06/04 07:41:16;;;;;;;0.50;0.20;;;;;;;23.23;24.43;101784.03;15712735;28;20482;-79
2023/06/04 07:48:50;;;;;;;0.13;0.13;;;;;;;22.66;23.57;101780.19;15721682;28;20044;-79
2023/06/04 07:56:23;;;;;;;0.20;0.20;;;;;;;22.94;24.34;101770.78;15718556;28;20045;-79
2023/06/04 08:03:58;;;;;;;0.70;0.40;;;;;;;24.37;20.42;101788.25;15716456;28;20061;-79
2023/06/04 08:11:31;;;;;;;0.15;0.05;;;;;;;24.04;22.95;101786.06;15706246;28;20052;-78
2023/06/04 08:19:07;;;;;;;0.65;0.20;;;;;;;23.90;22.40;101783.88;15698950;28;20409;-79
2023/06/04 08:26:43;;;;;;;0.05;0.03;;;;;;;23.48;23.70;101775.88;15702346;28;20065;-79
2023/06/04 08:34:18;;;;;;;0.20;0.20;;;;;;;24.45;22.05;101783.31;15716241;28;20043;-79
2023/06/04 08:41:53;;;;;;;0.22;0.08;;;;;;;23.92;22.85;101780.84;15686647;28;20049;-78
2023/06/04 08:49:34;;;;;;;0.77;0.35;;;;;;;24.09;21.80;101789.63;15739365;28;20057;-77
2023/06/04 08:57:07;;;;;;;1.50;0.05;;;;;;;23.64;22.87;101795.91;15750051;28;20041;-79
2023/06/04 09:04:43;;;;;;;0.00;0.00;;;;;;;24.31;22.11;101783.84;15743872;22;20135;-52
2023/06/04 09:12:22;;;;;;;0.35;0.30;;;;;;;25.22;21.24;101787.41;15727050;28;20574;-53
2023/06/04 09:19:57;;;;;;;0.17;0.17;;;;;;;24.04;21.98;101797.03;15710339;28;20079;-51
2023/06/04 09:27:39;;;;;;;0.10;0.10;;;;;;;24.94;21.32;101783.41;15705249;28;20049;-54
2023/06/04 09:35:14;;;;;;;0.38;0.30;;;;;;;24.22;20.65;101784.69;15723040;28;20053;-53
2023/06/04 09:42:54;;;;;;;0.50;0.10;;;;;;;25.54;20.77;101791.63;15730994;28;20044;-52
2023/06/04 09:50:28;;;;;;;1.17;0.50;;;;;;;25.81;20.22;101778.25;15711272;28;20049;-51
2023/06/04 09:58:02;;;;;;;0.40;0.20;;;;;;;25.41;19.79;101776.59;15715670;28;20045;-51
2023/06/04 10:05:37;;;;;;;0.52;0.13;;;;;;;25.65;19.91;101777.53;15689472;28;20049;-51
2023/06/04 10:13:17;;;;;;;0.95;0.22;;;;;;;26.95;18.92;101774.03;15719919;28;20075;-54
2023/06/04 10:20:53;;;;;;;0.55;0.30;;;;;;;25.90;19.07;101768.28;15723292;28;20048;-54
2023/06/04 10:28:28;;;;;;;0.55;0.30;;;;;;;26.71;19.38;101769.38;15725081;28;20036;-51
2023/06/04 10:36:17;;;;;;;0.47;0.32;;;;;;;26.70;19.75;101775.19;15716023;28;20064;-55
2023/06/04 10:43:51;;;;;;;1.75;0.30;;;;;;;25.43;18.89;101766.97;15709252;28;20037;-56
2023/06/04 10:51:36;;;;;;;0.28;0.28;;;;;;;26.24;20.11;101756.38;15684690;28;20580;-54
2023/06/04 10:59:19;;;;;;;2.10;0.43;;;;;;;27.31;18.46;101760.63;15728425;28;20572;-54
2023/06/04 11:07:08;;;;;;;0.20;0.20;;;;;;;26.88;19.57;101762.56;15679353;28;20131;-54
2023/06/04 11:14:55;;;;;;;3.70;0.30;;;;;;;27.87;19.88;101762.50;15728133;28;20037;-53
2023/06/04 11:22:37;;;;;;;0.07;0.07;;;;;;;28.25;18.01;101761.56;15712760;28;20052;-56
2023/06/04 11:30:11;;;;;;;0.90;0.22;;;;;;;28.46;16.79;101744.34;15695461;28;20047;-56
2023/06/04 11:37:55;;;;;;;1.25;0.30;;;;;;;28.50;17.48;101752.84;15705992;28;20481;-53
2023/06/04 11:45:30;;;;;;;0.98;0.73;;;;;;;26.75;17.74;101744.81;15721109;28;20048;-54
2023/06/04 11:53:04;;;;;;;0.40;0.10;;;;;;;27.43;16.97;101744.44;15714506;28;20045;-55
2023/06/04 12:00:37;;;;;;;0.20;0.10;;;;;;;27.03;17.36;101736.75;15729997;28;20412;-53
2023/06/04 12:08:11;;;;;;;0.30;0.15;;;;;;;28.33;17.29;101734.06;15720148;28;20068;-55
2023/06/04 12:15:52;;;;;;;0.50;0.22;;;;;;;28.14;16.52;101719.53;15728647;28;20055;-57
2023/06/04 12:23:27;;;;;;;2.65;0.40;;;;;;;28.86;16.17;101718.91;15709548;28;20041;-53
2023/06/04 12:31:00;;;;;;;0.43;0.35;;;;;;;29.89;16.42;101713.44;15717548;28;20064;-53
2023/06/04 12:38:34;;;;;;;1.92;0.35;;;;;;;30.11;14.50;101722.81;15713799;28;20383;-53
2023/06/04 12:46:07;;;;;;;1.63;0.77;;;;;;;27.67;17.12;101710.41;15722346;28;20758;-53
2023/06/04 12:53:41;;;;;;;2.75;0.98;;;;;;;29.43;14.73;101711.81;15705611;28;20067;-54
2023/06/04 13:01:15;;;;;;;0.68;0.40;;;;;;;29.13;15.65;101701.47;15725288;28;20053;-53
2023/06/04 13:08:50;;;;;;;1.27;0.38;;;;;;;27.23;17.61;101702.56;15717227;28;20072;-53
2023/06/04 13:16:22;;;;;;;0.30;0.10;;;;;;;26.95;17.64;101710.66;15726419;28;20083;-54
2023/06/04 13:23:57;;;;;;;1.33;0.47;;;;;;;27.41;17.16;101701.75;15713057;28;20045;-53
2023/06/04 13:31:29;;;;;;;1.63;0.30;;;;;;;26.30;18.76;101691.09;15714863;28;20048;-54
2023/06/04 13:39:03;;;;;;;1.42;0.63;;;;;;;25.86;18.08;101679.19;15715341;28;20440;-55
2023/06/04 13:46:36;;;;;;;0.57;0.38;;;;;;;25.64;18.98;101667.81;15712807;28;20124;-53
2023/06/04 13:54:11;;;;;;;0.20;0.13;;;;;;;26.34;21.91;101664.63;15708994;28;20461;-51
2023/06/04 14:01:43;;;;;;;0.22;0.20;;;;;;;26.64;19.80;101669.78;15720160;28;20048;-52
2023/06/04 14:09:17;;;;;;;2.15;0.93;;;;;;;26.56;18.71;101666.88;15719781;28;20086;-51
2023/06/04 14:16:50;;;;;;;5.07;2.25;;;;;;;26.05;19.59;101651.75;15734273;28;20052;-52
2023/06/04 14:24:24;;;;;;;0.40;0.30;;;;;;;26.22;20.03;101661.47;15710720;28;20041;-52
2023/06/04 14:31:57;;;;;;;0.35;0.30;;;;;;;26.65;19.53;101663.16;15718503;28;20032;-53
2023/06/04 14:39:31;;;;;;;0.10;0.10;;;;;;;25.94;18.82;101658.47;15728627;28;20550;-54
2023/06/04 14:47:04;;;;;;;0.47;0.30;;;;;;;25.73;19.32;101649.56;15714433;28;20048;-51
2023/06/04 14:54:38;;;;;;;0.55;0.10;;;;;;;25.02;18.98;101645.47;15707212;28;20044;-52
2023/06/04 15:02:11;;;;;;;0.73;0.20;;;;;;;25.58;18.79;101635.97;15705590;28;20112;-52
2023/06/04 15:09:47;;;;;;;0.50;0.25;;;;;;;24.98;20.27;101624.34;15696476;28;20044;-52
2023/06/04 15:17:20;;;;;;;0.22;0.10;;;;;;;25.07;20.14;101615.25;15639304;22;20042;-52
2023/06/04 15:24:57;;;;;;;0.70;0.22;;;;;;;24.78;19.91;101626.13;15624442;28;20045;-48
2023/06/04 15:32:30;;;;;;;0.57;0.30;;;;;;;24.90;19.53;101634.84;15615755;28;20505;-50
2023/06/04 15:40:07;;;;;;;0.60;0.32;;;;;;;25.42;20.31;101625.13;15604117;28;20409;-47
2023/06/04 15:47:40;;;;;;;0.55;0.25;;;;;;;24.77;20.20;101624.50;15624264;28;20056;-50
2023/06/04 15:55:15;;;;;;;0.55;0.22;;;;;;;25.24;19.78;101622.28;15617641;28;20560;-48
2023/06/04 16:02:47;;;;;;;0.60;0.25;;;;;;;24.43;19.99;101616.16;15617652;28;20041;-52
2023/06/04 16:10:22;;;;;;;2.28;0.50;;;;;;;24.14;20.35;101603.09;15613887;28;20259;-47
2023/06/04 16:17:55;;;;;;;1.02;0.38;;;;;;;24.80;21.14;101590.97;15605512;28;20053;-49
2023/06/04 16:25:30;;;;;;;1.05;0.47;;;;;;;24.36;21.13;101597.25;15621291;28;20596;-49
2023/06/04 16:33:03;;;;;;;0.57;0.28;;;;;;;23.79;21.02;101592.25;15624978;28;20447;-48
2023/06/04 16:40:37;;;;;;;0.28;0.10;;;;;;;24.06;21.44;101592.72;15600228;28;20045;-48
2023/06/04 16:48:10;;;;;;;0.68;0.28;;;;;;;24.12;22.30;101583.34;15621570;28;20103;-48
2023/06/04 16:55:44;;;;;;;1.17;0.43;;;;;;;24.13;22.16;101586.91;15623848;28;20041;-45
2023/06/04 17:03:21;;;;;;;0.20;0.10;;;;;;;24.25;22.59;101589.31;15615408;28;20052;-51
2023/06/04 17:10:56;;;;;;;2.35;0.47;;;;;;;23.38;21.18;101584.06;15596486;28;20500;-46
2023/06/04 17:18:29;;;;;;;0.10;0.10;;;;;;;24.00;22.50;101582.03;15621272;28;20052;-48
2023/06/04 17:26:05;;;;;;;0.20;0.20;;;;;;;23.12;22.31;101599.66;15617709;28;20034;-48
2023/06/04 17:33:38;;;;;;;0.08;0.08;;;;;;;23.24;22.03;101591.19;15623563;28;20413;-48
2023/06/04 17:41:12;;;;;;;1.13;0.63;;;;;;;23.56;22.25;101596.38;15615224;28;20077;-47
2023/06/04 18:06:38;;;;;;;0.20;0.20;;;;;;;23.41;23.55;101586.25;15621278;28;20037;-52
2023/06/04 18:14:11;;;;;;;1.00;0.50;;;;;;;22.96;23.60;101592.56;15623037;28;20132;-48
2023/06/04 18:21:45;;;;;;;0.40;0.22;;;;;;;22.95;26.16;101599.94;15628929;28;20046;-46
2023/06/04 18:29:18;;;;;;;0.20;0.10;;;;;;;22.75;26.04;101603.41;15636072;28;20486;-47
2023/06/04 18:36:52;;;;;;;;;;;;;;;22.53;28.13;101606.41;15626140;28;20071;-47
2023/06/04 18:44:26;;;;;;;0.10;0.10;;;;;;;22.29;27.48;101613.41;15628782;28;20383;-47
2023/06/04 18:52:00;;;;;;;0.70;0.22;;;;;;;21.84;29.08;101620.28;15621982;28;20112;-46
2023/06/04 18:59:33;;;;;;;4.88;0.45;;;;;;;21.50;29.72;101612.41;15622540;28;20453;-49
2023/06/04 19:07:07;;;;;;;2.50;0.32;;;;;;;21.28;30.08;101620.66;15618277;28;20047;-49
2023/06/04 19:14:40;;;;;;;0.70;0.43;;;;;;;20.99;31.34;101631.06;15619695;28;20128;-48
2023/06/04 19:22:14;;;;;;;0.20;0.20;;;;;;;20.61;31.97;101637.44;15607729;28;20053;-46
2023/06/04 19:29:47;;;;;;;0.47;0.22;;;;;;;20.22;33.35;101645.66;15612542;28;20049;-48
2023/06/04 19:37:21;;;;;;;5.35;0.57;;;;;;;19.93;32.12;101645.00;15623121;28;20056;-47
2023/06/04 19:44:54;;;;;;;0.70;0.45;;;;;;;19.65;33.32;101659.56;15622552;28;20091;-48
2023/06/04 19:52:29;;;;;;;;;;;;;;;19.32;34.70;101669.34;15618657;28;20525;-50
2023/06/04 20:00:02;;;;;;;1.27;0.52;;;;;;;18.82;36.35;101674.66;15619376;28;19936;-48
2023/06/04 20:07:45;;;;;;;0.57;0.40;;;;;;;18.47;36.17;101672.03;15615257;28;20056;-49
2023/06/04 20:15:18;;;;;;;0.85;0.57;;;;;;;18.15;37.22;101683.31;15614875;28;20136;-48
2023/06/04 20:22:52;;;;;;;0.73;0.23;;;;;;;18.00;37.12;101681.06;15620675;28;20043;-48
2023/06/04 20:30:25;;;;;;;0.22;0.22;;;;;;;17.70;37.87;101681.13;15623039;28;20597;-48
2023/06/04 20:38:00;;;;;;;1.02;0.30;;;;;;;17.51;37.72;101693.16;15602966;28;20052;-47
2023/06/04 20:45:33;;;;;;;0.30;0.30;;;;;;;17.15;39.12;101696.81;15618612;28;20095;-47
2023/06/04 20:53:07;;;;;;;1.93;0.83;;;;;;;17.04;40.10;101703.84;15617508;28;20072;-51
2023/06/04 21:00:40;;;;;;;0.28;0.17;;;;;;;16.96;39.68;101715.03;15615104;28;20420;-47
2023/06/04 21:08:17;;;;;;;1.65;0.57;;;;;;;16.86;39.94;101714.75;15612738;28;20453;-47
2023/06/04 21:15:49;;;;;;;0.10;0.10;;;;;;;16.78;39.48;101708.56;15671691;22;20444;-71
2023/06/04 21:23:23;;;;;;;0.20;0.20;;;;;;;16.61;39.69;101703.97;15639425;28;20056;-70
2023/06/04 21:30:56;;;;;;;6.90;2.50;;;;;;;16.39;41.19;101720.66;15633175;22;20141;-51
2023/06/04 21:38:30;;;;;;;3.43;0.33;;;;;;;16.30;40.74;101716.59;15622755;28;20460;-51
2023/06/04 21:46:03;;;;;;;0.50;0.45;;;;;;;16.22;40.78;101725.84;15622840;28;20045;-52
2023/06/04 21:53:37;;;;;;;0.87;0.33;;;;;;;16.12;40.96;101727.41;15620869;28;20072;-51
2023/06/04 22:01:10;;;;;;;0.32;0.30;;;;;;;15.96;41.06;101732.34;15622298;28;20060;-50
2023/06/04 22:08:45;;;;;;;1.23;0.40;;;;;;;15.71;41.83;101737.72;15620690;28;20080;-52
2023/06/04 22:16:17;;;;;;;1.75;0.60;;;;;;;15.26;44.41;101731.56;15620935;28;20480;-53
2023/06/04 22:23:52;;;;;;;0.93;0.20;;;;;;;15.13;45.32;101734.34;15619373;28;20045;-54
2023/06/04 22:31:24;;;;;;;0.60;0.32;;;;;;;14.89;46.01;101728.63;15620113;28;20045;-52
2023/06/04 22:38:58;;;;;;;0.77;0.50;;;;;;;14.83;46.28;101728.66;15618618;28;20045;-52
2023/06/04 22:46:31;;;;;;;0.98;0.50;;;;;;;14.75;46.94;101732.44;15618091;28;20486;-51
2023/06/04 22:54:06;;;;;;;0.87;0.70;;;;;;;14.59;47.45;101731.00;15617586;28;20256;-53
2023/06/04 23:01:39;;;;;;;0.43;0.43;;;;;;;14.40;47.85;101726.47;15619452;28;20041;-52
2023/06/04 23:09:13;;;;;;;0.35;0.25;;;;;;;14.35;47.95;101732.50;15600741;28;20058;-50
2023/06/04 23:16:46;;;;;;;1.38;0.65;;;;;;;14.17;48.24;101725.03;15600460;28;20053;-51
2023/06/04 23:24:20;;;;;;;0.40;0.30;;;;;;;14.03;48.52;101734.19;15616398;28;20041;-55
2023/06/04 23:31:53;;;;;;;0.30;0.20;;;;;;;13.94;48.42;101735.44;15616286;28;20509;-53
2023/06/04 23:39:27;;;;;;;1.90;1.10;;;;;;;13.73;48.99;101731.09;15616435;28;20068;-50
2023/06/04 23:47:00;;;;;;;0.50;0.30;;;;;;;13.65;49.05;101729.44;15597794;28;20053;-52
2023/06/04 23:54:34;;;;;;;3.50;0.60;;;;;;;13.58;49.65;101727.78;15615506;28;20045;-51
